sensor_id;sensor_type;location;lat;lon;timestamp;P1;durP1;ratioP1;P2;durP2;ratioP2
77563;SDS011;66703;48.076;9.220;2023-12-29T00:01:45;36.47;;;34.53;;
77563;SDS011;66703;48.076;9.220;2023-12-29T00:04:10;25.13;;;23.23;;
77563;SDS011;66703;48.076;9.220;2023-12-29T00:06:39;22.33;;;20.67;;
77563;SDS011;66703;48.076;9.220;2023-12-29T00:09:05;26.50;;;24.65;;
77563;SDS011;66703;48.076;9.220;2023-12-29T00:11:31;35.40;;;33.22;;
77563;SDS011;66703;48.076;9.220;2023-12-29T00:13:57;24.33;;;22.58;;
77563;SDS011;66703;48.076;9.220;2023-12-29T00:16:22;21.42;;;19.95;;
77563;SDS011;66703;48.076;9.220;2023-12-29T00:18:48;30.30;;;28.60;;
77563;SDS011;66703;48.076;9.220;2023-12-29T00:21:13;26.15;;;24.20;;
77563;SDS011;66703;48.076;9.220;2023-12-29T00:23:39;20.90;;;19.50;;
77563;SDS011;66703;48.076;9.220;2023-12-29T00:26:04;22.63;;;20.95;;
77563;SDS011;66703;48.076;9.220;2023-12-29T00:28:30;20.83;;;19.23;;
77563;SDS011;66703;48.076;9.220;2023-12-29T00:30:55;24.75;;;23.00;;
77563;SDS011;66703;48.076;9.220;2023-12-29T00:33:20;21.92;;;20.25;;
77563;SDS011;66703;48.076;9.220;2023-12-29T00:35:46;23.23;;;21.70;;
77563;SDS011;66703;48.076;9.220;2023-12-29T00:38:11;27.25;;;25.17;;
77563;SDS011;66703;48.076;9.220;2023-12-29T00:40:36;20.33;;;18.67;;
77563;SDS011;66703;48.076;9.220;2023-12-29T00:43:02;20.63;;;19.02;;
77563;SDS011;66703;48.076;9.220;2023-12-29T00:45:27;25.25;;;23.42;;
77563;SDS011;66703;48.076;9.220;2023-12-29T00:47:57;23.48;;;21.88;;
77563;SDS011;66703;48.076;9.220;2023-12-29T00:50:23;32.00;;;30.05;;
77563;SDS011;66703;48.076;9.220;2023-12-29T00:52:49;21.98;;;20.20;;
77563;SDS011;66703;48.076;9.220;2023-12-29T00:55:14;21.88;;;20.15;;
77563;SDS011;66703;48.076;9.220;2023-12-29T00:57:40;27.55;;;25.55;;
77563;SDS011;66703;48.076;9.220;2023-12-29T01:00:07;20.80;;;19.27;;
77563;SDS011;66703;48.076;9.220;2023-12-29T01:02:36;36.47;;;34.42;;
77563;SDS011;66703;48.076;9.220;2023-12-29T01:05:01;21.23;;;19.50;;
77563;SDS011;66703;48.076;9.220;2023-12-29T01:07:27;22.98;;;21.23;;
77563;SDS011;66703;48.076;9.220;2023-12-29T01:09:52;21.08;;;19.38;;
77563;SDS011;66703;48.076;9.220;2023-12-29T01:12:18;17.33;;;15.82;;
77563;SDS011;66703;48.076;9.220;2023-12-29T01:14:43;21.58;;;19.60;;
77563;SDS011;66703;48.076;9.220;2023-12-29T01:17:08;19.98;;;18.48;;
77563;SDS011;66703;48.076;9.220;2023-12-29T01:19:34;21.20;;;19.52;;
77563;SDS011;66703;48.076;9.220;2023-12-29T01:21:59;22.20;;;20.30;;
77563;SDS011;66703;48.076;9.220;2023-12-29T01:24:24;25.55;;;23.70;;
77563;SDS011;66703;48.076;9.220;2023-12-29T01:26:50;22.25;;;20.42;;
77563;SDS011;66703;48.076;9.220;2023-12-29T01:29:15;19.63;;;17.90;;
77563;SDS011;66703;48.076;9.220;2023-12-29T01:31:40;20.45;;;18.55;;
77563;SDS011;66703;48.076;9.220;2023-12-29T01:34:06;20.65;;;19.15;;
77563;SDS011;66703;48.076;9.220;2023-12-29T01:36:31;20.90;;;19.27;;
77563;SDS011;66703;48.076;9.220;2023-12-29T01:38:57;21.23;;;19.60;;
77563;SDS011;66703;48.076;9.220;2023-12-29T01:41:22;24.40;;;22.63;;
77563;SDS011;66703;48.076;9.220;2023-12-29T01:46:19;20.85;;;19.05;;
77563;SDS011;66703;48.076;9.220;2023-12-29T01:48:45;20.92;;;18.80;;
77563;SDS011;66703;48.076;9.220;2023-12-29T01:51:10;26.58;;;24.55;;
77563;SDS011;66703;48.076;9.220;2023-12-29T01:53:36;19.55;;;17.80;;
77563;SDS011;66703;48.076;9.220;2023-12-29T01:56:01;31.05;;;29.10;;
77563;SDS011;66703;48.076;9.220;2023-12-29T01:58:26;21.75;;;19.80;;
77563;SDS011;66703;48.076;9.220;2023-12-29T02:00:52;22.05;;;20.33;;
77563;SDS011;66703;48.076;9.220;2023-12-29T02:03:17;20.77;;;19.05;;
77563;SDS011;66703;48.076;9.220;2023-12-29T02:05:43;26.83;;;25.15;;
77563;SDS011;66703;48.076;9.220;2023-12-29T02:08:09;21.27;;;19.48;;
77563;SDS011;66703;48.076;9.220;2023-12-29T02:10:36;25.67;;;23.65;;
77563;SDS011;66703;48.076;9.220;2023-12-29T02:13:02;24.63;;;22.70;;
77563;SDS011;66703;48.076;9.220;2023-12-29T02:15:27;21.92;;;20.17;;
77563;SDS011;66703;48.076;9.220;2023-12-29T02:18:00;23.15;;;21.45;;
77563;SDS011;66703;48.076;9.220;2023-12-29T02:20:27;30.35;;;28.30;;
77563;SDS011;66703;48.076;9.220;2023-12-29T02:22:53;33.95;;;31.65;;
77563;SDS011;66703;48.076;9.220;2023-12-29T02:25:18;54.55;;;52.00;;
77563;SDS011;66703;48.076;9.220;2023-12-29T02:30:10;20.50;;;18.90;;
77563;SDS011;66703;48.076;9.220;2023-12-29T02:32:46;22.85;;;21.05;;
77563;SDS011;66703;48.076;9.220;2023-12-29T02:35:20;21.65;;;19.85;;
77563;SDS011;66703;48.076;9.220;2023-12-29T02:37:48;19.35;;;17.67;;
77563;SDS011;66703;48.076;9.220;2023-12-29T02:40:14;37.50;;;35.38;;
77563;SDS011;66703;48.076;9.220;2023-12-29T02:42:44;25.08;;;23.23;;
77563;SDS011;66703;48.076;9.220;2023-12-29T02:45:12;31.20;;;29.10;;
77563;SDS011;66703;48.076;9.220;2023-12-29T02:47:38;28.38;;;26.48;;
77563;SDS011;66703;48.076;9.220;2023-12-29T02:50:04;27.20;;;25.50;;
77563;SDS011;66703;48.076;9.220;2023-12-29T02:52:29;23.60;;;21.60;;
77563;SDS011;66703;48.076;9.220;2023-12-29T02:54:55;22.95;;;20.80;;
77563;SDS011;66703;48.076;9.220;2023-12-29T02:57:20;27.23;;;25.45;;
77563;SDS011;66703;48.076;9.220;2023-12-29T02:59:45;24.15;;;22.20;;
77563;SDS011;66703;48.076;9.220;2023-12-29T03:02:11;23.25;;;21.17;;
77563;SDS011;66703;48.076;9.220;2023-12-29T03:04:36;40.08;;;37.92;;
77563;SDS011;66703;48.076;9.220;2023-12-29T03:07:01;23.70;;;22.17;;
77563;SDS011;66703;48.076;9.220;2023-12-29T03:09:27;21.70;;;19.70;;
77563;SDS011;66703;48.076;9.220;2023-12-29T03:11:52;21.45;;;19.85;;
77563;SDS011;66703;48.076;9.220;2023-12-29T03:14:17;40.28;;;38.15;;
77563;SDS011;66703;48.076;9.220;2023-12-29T03:16:43;23.02;;;21.27;;
77563;SDS011;66703;48.076;9.220;2023-12-29T03:19:08;36.97;;;34.97;;
77563;SDS011;66703;48.076;9.220;2023-12-29T03:21:33;22.00;;;20.40;;
77563;SDS011;66703;48.076;9.220;2023-12-29T03:23:59;23.45;;;21.65;;
77563;SDS011;66703;48.076;9.220;2023-12-29T03:26:24;22.65;;;20.70;;
77563;SDS011;66703;48.076;9.220;2023-12-29T03:28:50;23.23;;;21.45;;
77563;SDS011;66703;48.076;9.220;2023-12-29T03:31:15;24.63;;;22.80;;
77563;SDS011;66703;48.076;9.220;2023-12-29T03:33:40;21.42;;;19.88;;
77563;SDS011;66703;48.076;9.220;2023-12-29T03:36:06;27.20;;;25.45;;
77563;SDS011;66703;48.076;9.220;2023-12-29T03:38:32;27.70;;;25.77;;
77563;SDS011;66703;48.076;9.220;2023-12-29T03:40:58;33.17;;;31.08;;
77563;SDS011;66703;48.076;9.220;2023-12-29T03:43:23;20.48;;;18.85;;
77563;SDS011;66703;48.076;9.220;2023-12-29T03:45:49;20.33;;;18.77;;
77563;SDS011;66703;48.076;9.220;2023-12-29T03:48:14;24.45;;;22.60;;
77563;SDS011;66703;48.076;9.220;2023-12-29T03:50:40;24.83;;;23.20;;
77563;SDS011;66703;48.076;9.220;2023-12-29T03:53:05;24.33;;;22.67;;
77563;SDS011;66703;48.076;9.220;2023-12-29T03:55:30;36.25;;;34.40;;
77563;SDS011;66703;48.076;9.220;2023-12-29T03:57:56;18.02;;;16.92;;
77563;SDS011;66703;48.076;9.220;2023-12-29T04:00:21;17.73;;;16.33;;
77563;SDS011;66703;48.076;9.220;2023-12-29T04:02:47;22.73;;;21.33;;
77563;SDS011;66703;48.076;9.220;2023-12-29T04:05:12;26.45;;;25.00;;
77563;SDS011;66703;48.076;9.220;2023-12-29T04:07:41;18.25;;;16.80;;
77563;SDS011;66703;48.076;9.220;2023-12-29T04:10:06;22.52;;;21.00;;
77563;SDS011;66703;48.076;9.220;2023-12-29T04:12:33;22.13;;;20.63;;
77563;SDS011;66703;48.076;9.220;2023-12-29T04:14:58;16.25;;;15.05;;
77563;SDS011;66703;48.076;9.220;2023-12-29T04:17:24;32.13;;;30.38;;
77563;SDS011;66703;48.076;9.220;2023-12-29T04:19:49;29.13;;;27.25;;
77563;SDS011;66703;48.076;9.220;2023-12-29T04:22:14;24.33;;;22.73;;
77563;SDS011;66703;48.076;9.220;2023-12-29T04:24:40;19.23;;;17.77;;
77563;SDS011;66703;48.076;9.220;2023-12-29T04:27:05;22.90;;;21.33;;
77563;SDS011;66703;48.076;9.220;2023-12-29T04:29:31;23.13;;;21.55;;
77563;SDS011;66703;48.076;9.220;2023-12-29T04:31:56;19.27;;;17.92;;
77563;SDS011;66703;48.076;9.220;2023-12-29T04:34:21;19.63;;;17.92;;
77563;SDS011;66703;48.076;9.220;2023-12-29T04:36:47;20.63;;;19.10;;
77563;SDS011;66703;48.076;9.220;2023-12-29T04:39:12;38.85;;;36.40;;
77563;SDS011;66703;48.076;9.220;2023-12-29T04:41:37;26.70;;;24.95;;
77563;SDS011;66703;48.076;9.220;2023-12-29T04:44:03;24.10;;;22.55;;
77563;SDS011;66703;48.076;9.220;2023-12-29T04:46:28;18.80;;;17.58;;
77563;SDS011;66703;48.076;9.220;2023-12-29T04:48:54;16.48;;;15.27;;
77563;SDS011;66703;48.076;9.220;2023-12-29T04:51:19;17.27;;;15.95;;
77563;SDS011;66703;48.076;9.220;2023-12-29T04:53:45;29.30;;;27.50;;
77563;SDS011;66703;48.076;9.220;2023-12-29T04:56:11;20.30;;;19.00;;
77563;SDS011;66703;48.076;9.220;2023-12-29T04:58:37;17.63;;;16.33;;
77563;SDS011;66703;48.076;9.220;2023-12-29T05:01:02;23.77;;;22.55;;
77563;SDS011;66703;48.076;9.220;2023-12-29T05:03:28;24.33;;;22.73;;
77563;SDS011;66703;48.076;9.220;2023-12-29T05:05:53;16.20;;;14.98;;
77563;SDS011;66703;48.076;9.220;2023-12-29T05:08:19;16.42;;;15.18;;
77563;SDS011;66703;48.076;9.220;2023-12-29T05:10:44;21.90;;;20.25;;
77563;SDS011;66703;48.076;9.220;2023-12-29T05:13:09;21.00;;;19.60;;
77563;SDS011;66703;48.076;9.220;2023-12-29T05:15:35;16.38;;;15.10;;
77563;SDS011;66703;48.076;9.220;2023-12-29T05:18:00;19.42;;;17.75;;
77563;SDS011;66703;48.076;9.220;2023-12-29T05:20:26;18.30;;;17.10;;
77563;SDS011;66703;48.076;9.220;2023-12-29T05:22:51;15.77;;;14.55;;
77563;SDS011;66703;48.076;9.220;2023-12-29T05:25:16;20.05;;;18.65;;
77563;SDS011;66703;48.076;9.220;2023-12-29T05:27:42;21.58;;;20.02;;
77563;SDS011;66703;48.076;9.220;2023-12-29T05:30:07;24.90;;;23.02;;
77563;SDS011;66703;48.076;9.220;2023-12-29T05:32:33;18.13;;;16.73;;
77563;SDS011;66703;48.076;9.220;2023-12-29T05:34:58;18.92;;;17.33;;
77563;SDS011;66703;48.076;9.220;2023-12-29T05:37:24;17.42;;;16.02;;
77563;SDS011;66703;48.076;9.220;2023-12-29T05:39:49;15.35;;;14.35;;
77563;SDS011;66703;48.076;9.220;2023-12-29T05:42:14;17.90;;;16.80;;
77563;SDS011;66703;48.076;9.220;2023-12-29T05:44:40;16.58;;;15.55;;
77563;SDS011;66703;48.076;9.220;2023-12-29T05:47:05;20.17;;;18.98;;
77563;SDS011;66703;48.076;9.220;2023-12-29T05:49:31;15.48;;;14.52;;
77563;SDS011;66703;48.076;9.220;2023-12-29T05:51:57;15.95;;;15.05;;
77563;SDS011;66703;48.076;9.220;2023-12-29T05:54:22;15.73;;;14.55;;
77563;SDS011;66703;48.076;9.220;2023-12-29T05:56:48;14.30;;;13.48;;
77563;SDS011;66703;48.076;9.220;2023-12-29T05:59:14;14.10;;;13.10;;
77563;SDS011;66703;48.076;9.220;2023-12-29T06:01:39;16.05;;;14.90;;
77563;SDS011;66703;48.076;9.220;2023-12-29T06:04:04;12.55;;;11.55;;
77563;SDS011;66703;48.076;9.220;2023-12-29T06:06:30;27.75;;;26.35;;
77563;SDS011;66703;48.076;9.220;2023-12-29T06:08:55;14.13;;;13.15;;
77563;SDS011;66703;48.076;9.220;2023-12-29T06:11:20;16.77;;;15.73;;
77563;SDS011;66703;48.076;9.220;2023-12-29T06:13:46;18.20;;;17.10;;
77563;SDS011;66703;48.076;9.220;2023-12-29T06:16:21;13.35;;;12.45;;
77563;SDS011;66703;48.076;9.220;2023-12-29T06:18:47;16.33;;;15.40;;
77563;SDS011;66703;48.076;9.220;2023-12-29T06:21:12;14.07;;;12.77;;
77563;SDS011;66703;48.076;9.220;2023-12-29T06:23:38;18.13;;;17.02;;
77563;SDS011;66703;48.076;9.220;2023-12-29T06:26:03;22.20;;;21.00;;
77563;SDS011;66703;48.076;9.220;2023-12-29T06:28:28;19.48;;;18.27;;
77563;SDS011;66703;48.076;9.220;2023-12-29T06:30:54;27.52;;;26.17;;
77563;SDS011;66703;48.076;9.220;2023-12-29T06:33:19;13.80;;;12.75;;
77563;SDS011;66703;48.076;9.220;2023-12-29T06:35:47;18.55;;;17.33;;
77563;SDS011;66703;48.076;9.220;2023-12-29T06:38:12;14.55;;;13.32;;
77563;SDS011;66703;48.076;9.220;2023-12-29T06:40:38;21.50;;;20.27;;
77563;SDS011;66703;48.076;9.220;2023-12-29T06:43:04;13.18;;;12.15;;
77563;SDS011;66703;48.076;9.220;2023-12-29T06:45:29;16.60;;;15.50;;
77563;SDS011;66703;48.076;9.220;2023-12-29T06:47:54;15.20;;;14.20;;
77563;SDS011;66703;48.076;9.220;2023-12-29T06:50:20;14.68;;;13.55;;
77563;SDS011;66703;48.076;9.220;2023-12-29T06:52:46;16.98;;;15.98;;
77563;SDS011;66703;48.076;9.220;2023-12-29T06:55:11;15.82;;;14.68;;
77563;SDS011;66703;48.076;9.220;2023-12-29T06:57:36;26.98;;;25.55;;
77563;SDS011;66703;48.076;9.220;2023-12-29T07:00:02;19.92;;;18.58;;
77563;SDS011;66703;48.076;9.220;2023-12-29T07:02:28;17.92;;;16.58;;
77563;SDS011;66703;48.076;9.220;2023-12-29T07:04:53;18.40;;;16.98;;
77563;SDS011;66703;48.076;9.220;2023-12-29T07:07:19;19.08;;;17.70;;
77563;SDS011;66703;48.076;9.220;2023-12-29T07:09:44;14.82;;;13.93;;
77563;SDS011;66703;48.076;9.220;2023-12-29T07:12:09;15.50;;;14.40;;
77563;SDS011;66703;48.076;9.220;2023-12-29T07:14:35;21.77;;;20.52;;
77563;SDS011;66703;48.076;9.220;2023-12-29T07:17:01;18.05;;;16.75;;
77563;SDS011;66703;48.076;9.220;2023-12-29T07:19:26;21.00;;;19.77;;
77563;SDS011;66703;48.076;9.220;2023-12-29T07:21:58;20.88;;;19.67;;
77563;SDS011;66703;48.076;9.220;2023-12-29T07:24:24;17.45;;;16.25;;
77563;SDS011;66703;48.076;9.220;2023-12-29T07:26:49;20.58;;;19.15;;
77563;SDS011;66703;48.076;9.220;2023-12-29T07:29:15;18.20;;;16.83;;
77563;SDS011;66703;48.076;9.220;2023-12-29T07:31:40;26.90;;;25.35;;
77563;SDS011;66703;48.076;9.220;2023-12-29T07:34:05;23.02;;;21.63;;
77563;SDS011;66703;48.076;9.220;2023-12-29T07:36:31;19.35;;;18.13;;
77563;SDS011;66703;48.076;9.220;2023-12-29T07:38:56;17.08;;;15.88;;
77563;SDS011;66703;48.076;9.220;2023-12-29T07:41:22;24.20;;;22.92;;
77563;SDS011;66703;48.076;9.220;2023-12-29T07:43:47;26.63;;;24.77;;
77563;SDS011;66703;48.076;9.220;2023-12-29T07:46:12;23.13;;;21.80;;
77563;SDS011;66703;48.076;9.220;2023-12-29T07:48:38;16.17;;;14.95;;
77563;SDS011;66703;48.076;9.220;2023-12-29T07:51:05;17.27;;;15.93;;
77563;SDS011;66703;48.076;9.220;2023-12-29T07:53:31;17.42;;;16.33;;
77563;SDS011;66703;48.076;9.220;2023-12-29T07:55:56;16.52;;;15.40;;
77563;SDS011;66703;48.076;9.220;2023-12-29T07:58:21;18.75;;;17.45;;
77563;SDS011;66703;48.076;9.220;2023-12-29T08:00:47;19.48;;;18.08;;
77563;SDS011;66703;48.076;9.220;2023-12-29T08:03:12;20.77;;;19.35;;
77563;SDS011;66703;48.076;9.220;2023-12-29T08:05:38;19.58;;;18.25;;
77563;SDS011;66703;48.076;9.220;2023-12-29T08:08:04;22.13;;;20.65;;
77563;SDS011;66703;48.076;9.220;2023-12-29T08:10:29;25.05;;;23.63;;
77563;SDS011;66703;48.076;9.220;2023-12-29T08:12:56;23.95;;;22.38;;
77563;SDS011;66703;48.076;9.220;2023-12-29T08:15:22;18.02;;;16.75;;
77563;SDS011;66703;48.076;9.220;2023-12-29T08:17:47;17.48;;;16.08;;
77563;SDS011;66703;48.076;9.220;2023-12-29T08:20:12;18.02;;;16.52;;
77563;SDS011;66703;48.076;9.220;2023-12-29T08:22:38;22.98;;;21.58;;
77563;SDS011;66703;48.076;9.220;2023-12-29T08:25:03;25.55;;;23.95;;
77563;SDS011;66703;48.076;9.220;2023-12-29T08:27:29;21.65;;;20.20;;
77563;SDS011;66703;48.076;9.220;2023-12-29T08:29:55;20.70;;;19.25;;
77563;SDS011;66703;48.076;9.220;2023-12-29T08:32:20;20.05;;;18.52;;
77563;SDS011;66703;48.076;9.220;2023-12-29T08:34:46;17.67;;;16.17;;
77563;SDS011;66703;48.076;9.220;2023-12-29T08:37:12;22.80;;;21.20;;
77563;SDS011;66703;48.076;9.220;2023-12-29T08:39:37;17.58;;;16.17;;
77563;SDS011;66703;48.076;9.220;2023-12-29T08:42:02;18.63;;;17.30;;
77563;SDS011;66703;48.076;9.220;2023-12-29T08:44:28;22.20;;;20.70;;
77563;SDS011;66703;48.076;9.220;2023-12-29T08:46:54;20.27;;;18.88;;
77563;SDS011;66703;48.076;9.220;2023-12-29T08:49:19;19.25;;;17.85;;
77563;SDS011;66703;48.076;9.220;2023-12-29T08:51:45;21.17;;;19.80;;
77563;SDS011;66703;48.076;9.220;2023-12-29T08:54:10;16.55;;;15.18;;
77563;SDS011;66703;48.076;9.220;2023-12-29T08:56:36;20.83;;;19.08;;
77563;SDS011;66703;48.076;9.220;2023-12-29T08:59:01;21.67;;;20.17;;
77563;SDS011;66703;48.076;9.220;2023-12-29T09:01:26;22.55;;;21.13;;
77563;SDS011;66703;48.076;9.220;2023-12-29T09:03:52;19.85;;;18.50;;
77563;SDS011;66703;48.076;9.220;2023-12-29T09:06:17;16.65;;;15.40;;
77563;SDS011;66703;48.076;9.220;2023-12-29T09:08:43;16.27;;;15.07;;
77563;SDS011;66703;48.076;9.220;2023-12-29T09:11:09;17.80;;;15.98;;
77563;SDS011;66703;48.076;9.220;2023-12-29T09:13:34;20.20;;;18.70;;
77563;SDS011;66703;48.076;9.220;2023-12-29T09:15:59;23.65;;;22.13;;
77563;SDS011;66703;48.076;9.220;2023-12-29T09:18:25;24.73;;;22.98;;
77563;SDS011;66703;48.076;9.220;2023-12-29T09:20:50;19.48;;;17.98;;
77563;SDS011;66703;48.076;9.220;2023-12-29T09:23:16;22.23;;;20.92;;
77563;SDS011;66703;48.076;9.220;2023-12-29T09:25:41;17.33;;;16.02;;
77563;SDS011;66703;48.076;9.220;2023-12-29T09:28:07;17.92;;;16.63;;
77563;SDS011;66703;48.076;9.220;2023-12-29T09:30:32;15.57;;;14.27;;
77563;SDS011;66703;48.076;9.220;2023-12-29T09:32:58;21.98;;;20.60;;
77563;SDS011;66703;48.076;9.220;2023-12-29T09:35:23;18.10;;;16.63;;
77563;SDS011;66703;48.076;9.220;2023-12-29T09:37:49;17.95;;;16.25;;
77563;SDS011;66703;48.076;9.220;2023-12-29T09:40:14;19.52;;;17.92;;
77563;SDS011;66703;48.076;9.220;2023-12-29T09:42:41;15.20;;;14.10;;
77563;SDS011;66703;48.076;9.220;2023-12-29T09:45:09;19.67;;;18.33;;
77563;SDS011;66703;48.076;9.220;2023-12-29T09:47:37;19.98;;;18.58;;
77563;SDS011;66703;48.076;9.220;2023-12-29T09:50:04;18.15;;;16.95;;
77563;SDS011;66703;48.076;9.220;2023-12-29T09:52:30;18.35;;;17.13;;
77563;SDS011;66703;48.076;9.220;2023-12-29T09:54:56;15.60;;;14.30;;
77563;SDS011;66703;48.076;9.220;2023-12-29T09:57:22;15.48;;;14.43;;
77563;SDS011;66703;48.076;9.220;2023-12-29T09:59:51;16.90;;;15.40;;
77563;SDS011;66703;48.076;9.220;2023-12-29T10:02:19;16.75;;;15.48;;
77563;SDS011;66703;48.076;9.220;2023-12-29T10:04:45;13.75;;;12.70;;
77563;SDS011;66703;48.076;9.220;2023-12-29T10:07:14;12.32;;;11.32;;
77563;SDS011;66703;48.076;9.220;2023-12-29T10:09:44;17.92;;;16.63;;
77563;SDS011;66703;48.076;9.220;2023-12-29T10:12:10;16.50;;;15.52;;
77563;SDS011;66703;48.076;9.220;2023-12-29T10:17:36;13.98;;;12.82;;
77563;SDS011;66703;48.076;9.220;2023-12-29T10:22:44;13.10;;;11.98;;
77563;SDS011;66703;48.076;9.220;2023-12-29T10:25:34;13.05;;;12.05;;
77563;SDS011;66703;48.076;9.220;2023-12-29T10:28:00;12.32;;;11.52;;
77563;SDS011;66703;48.076;9.220;2023-12-29T10:30:25;10.80;;;9.98;;
77563;SDS011;66703;48.076;9.220;2023-12-29T10:32:51;20.80;;;19.77;;
77563;SDS011;66703;48.076;9.220;2023-12-29T10:35:17;9.95;;;9.15;;
77563;SDS011;66703;48.076;9.220;2023-12-29T10:37:43;11.18;;;10.25;;
77563;SDS011;66703;48.076;9.220;2023-12-29T10:40:08;16.83;;;16.02;;
77563;SDS011;66703;48.076;9.220;2023-12-29T10:42:34;10.25;;;9.48;;
77563;SDS011;66703;48.076;9.220;2023-12-29T10:45:06;11.27;;;10.48;;
77563;SDS011;66703;48.076;9.220;2023-12-29T10:47:33;11.20;;;10.23;;
77563;SDS011;66703;48.076;9.220;2023-12-29T10:50:00;12.32;;;11.32;;
77563;SDS011;66703;48.076;9.220;2023-12-29T10:52:29;10.43;;;9.70;;
77563;SDS011;66703;48.076;9.220;2023-12-29T10:55:05;11.10;;;10.20;;
77563;SDS011;66703;48.076;9.220;2023-12-29T10:57:32;11.15;;;10.35;;
77563;SDS011;66703;48.076;9.220;2023-12-29T10:59:57;10.27;;;9.40;;
77563;SDS011;66703;48.076;9.220;2023-12-29T11:02:23;12.98;;;12.05;;
77563;SDS011;66703;48.076;9.220;2023-12-29T11:04:48;13.25;;;12.43;;
77563;SDS011;66703;48.076;9.220;2023-12-29T11:07:15;10.75;;;9.85;;
77563;SDS011;66703;48.076;9.220;2023-12-29T11:09:41;18.80;;;17.80;;
77563;SDS011;66703;48.076;9.220;2023-12-29T11:12:07;11.88;;;10.98;;
77563;SDS011;66703;48.076;9.220;2023-12-29T11:14:32;11.40;;;10.50;;
77563;SDS011;66703;48.076;9.220;2023-12-29T11:16:58;11.77;;;10.93;;
77563;SDS011;66703;48.076;9.220;2023-12-29T11:19:25;11.43;;;10.63;;
77563;SDS011;66703;48.076;9.220;2023-12-29T11:21:51;11.98;;;11.18;;
77563;SDS011;66703;48.076;9.220;2023-12-29T11:24:21;12.40;;;11.40;;
77563;SDS011;66703;48.076;9.220;2023-12-29T11:26:48;11.40;;;10.40;;
77563;SDS011;66703;48.076;9.220;2023-12-29T11:29:14;11.23;;;10.43;;
77563;SDS011;66703;48.076;9.220;2023-12-29T11:31:40;11.73;;;10.82;;
77563;SDS011;66703;48.076;9.220;2023-12-29T11:34:10;19.05;;;17.92;;
77563;SDS011;66703;48.076;9.220;2023-12-29T11:36:40;10.27;;;9.48;;
77563;SDS011;66703;48.076;9.220;2023-12-29T11:42:19;11.60;;;10.85;;
77563;SDS011;66703;48.076;9.220;2023-12-29T11:44:46;9.68;;;8.93;;
77563;SDS011;66703;48.076;9.220;2023-12-29T11:50:01;10.30;;;9.35;;
77563;SDS011;66703;48.076;9.220;2023-12-29T11:52:37;11.88;;;11.10;;
77563;SDS011;66703;48.076;9.220;2023-12-29T11:55:10;7.65;;;7.15;;
77563;SDS011;66703;48.076;9.220;2023-12-29T11:57:37;10.18;;;9.48;;
77563;SDS011;66703;48.076;9.220;2023-12-29T12:00:03;9.38;;;8.68;;
77563;SDS011;66703;48.076;9.220;2023-12-29T12:02:30;8.98;;;8.45;;
77563;SDS011;66703;48.076;9.220;2023-12-29T12:04:56;9.82;;;9.23;;
77563;SDS011;66703;48.076;9.220;2023-12-29T12:09:47;10.15;;;9.45;;
77563;SDS011;66703;48.076;9.220;2023-12-29T12:12:14;8.35;;;7.85;;
77563;SDS011;66703;48.076;9.220;2023-12-29T12:14:46;6.35;;;5.95;;
77563;SDS011;66703;48.076;9.220;2023-12-29T12:17:28;8.18;;;7.68;;
77563;SDS011;66703;48.076;9.220;2023-12-29T12:19:58;8.45;;;7.95;;
77563;SDS011;66703;48.076;9.220;2023-12-29T12:22:35;7.07;;;6.53;;
77563;SDS011;66703;48.076;9.220;2023-12-29T12:25:01;8.10;;;7.57;;
77563;SDS011;66703;48.076;9.220;2023-12-29T12:27:28;7.50;;;7.00;;
77563;SDS011;66703;48.076;9.220;2023-12-29T12:29:54;9.27;;;8.55;;
77563;SDS011;66703;48.076;9.220;2023-12-29T12:32:22;9.10;;;8.45;;
77563;SDS011;66703;48.076;9.220;2023-12-29T12:34:48;8.23;;;7.72;;
77563;SDS011;66703;48.076;9.220;2023-12-29T12:37:18;8.02;;;7.38;;
77563;SDS011;66703;48.076;9.220;2023-12-29T12:39:44;9.13;;;8.52;;
77563;SDS011;66703;48.076;9.220;2023-12-29T12:42:09;7.40;;;6.90;;
77563;SDS011;66703;48.076;9.220;2023-12-29T12:44:36;7.82;;;7.30;;
77563;SDS011;66703;48.076;9.220;2023-12-29T12:47:06;7.13;;;6.50;;
77563;SDS011;66703;48.076;9.220;2023-12-29T12:49:33;6.28;;;5.88;;
77563;SDS011;66703;48.076;9.220;2023-12-29T12:51:59;7.07;;;6.47;;
77563;SDS011;66703;48.076;9.220;2023-12-29T12:54:24;7.43;;;6.93;;
77563;SDS011;66703;48.076;9.220;2023-12-29T12:56:50;8.50;;;7.90;;
77563;SDS011;66703;48.076;9.220;2023-12-29T12:59:16;7.45;;;6.88;;
77563;SDS011;66703;48.076;9.220;2023-12-29T13:01:41;10.15;;;9.50;;
77563;SDS011;66703;48.076;9.220;2023-12-29T13:04:07;7.45;;;7.05;;
77563;SDS011;66703;48.076;9.220;2023-12-29T13:06:33;7.28;;;6.68;;
77563;SDS011;66703;48.076;9.220;2023-12-29T13:08:59;7.72;;;7.13;;
77563;SDS011;66703;48.076;9.220;2023-12-29T13:11:26;7.85;;;7.35;;
77563;SDS011;66703;48.076;9.220;2023-12-29T13:13:52;7.38;;;6.88;;
77563;SDS011;66703;48.076;9.220;2023-12-29T13:16:34;7.10;;;6.50;;
77563;SDS011;66703;48.076;9.220;2023-12-29T13:19:20;6.30;;;5.68;;
77563;SDS011;66703;48.076;9.220;2023-12-29T13:21:51;8.32;;;7.72;;
77563;SDS011;66703;48.076;9.220;2023-12-29T13:24:22;7.70;;;6.93;;
77563;SDS011;66703;48.076;9.220;2023-12-29T13:26:50;6.90;;;6.45;;
77563;SDS011;66703;48.076;9.220;2023-12-29T13:29:17;7.80;;;7.30;;
77563;SDS011;66703;48.076;9.220;2023-12-29T13:31:43;8.02;;;7.53;;
77563;SDS011;66703;48.076;9.220;2023-12-29T13:34:13;6.68;;;6.18;;
77563;SDS011;66703;48.076;9.220;2023-12-29T13:39:26;7.85;;;7.25;;
77563;SDS011;66703;48.076;9.220;2023-12-29T13:41:55;7.22;;;6.72;;
77563;SDS011;66703;48.076;9.220;2023-12-29T13:44:21;7.22;;;6.75;;
77563;SDS011;66703;48.076;9.220;2023-12-29T13:46:47;10.80;;;10.23;;
77563;SDS011;66703;48.076;9.220;2023-12-29T13:49:13;6.15;;;5.75;;
77563;SDS011;66703;48.076;9.220;2023-12-29T13:51:40;7.55;;;6.95;;
77563;SDS011;66703;48.076;9.220;2023-12-29T13:54:06;7.18;;;6.68;;
77563;SDS011;66703;48.076;9.220;2023-12-29T13:56:31;8.40;;;7.97;;
77563;SDS011;66703;48.076;9.220;2023-12-29T13:58:57;7.50;;;6.90;;
77563;SDS011;66703;48.076;9.220;2023-12-29T14:01:22;9.02;;;8.52;;
77563;SDS011;66703;48.076;9.220;2023-12-29T14:06:26;7.13;;;6.50;;
77563;SDS011;66703;48.076;9.220;2023-12-29T14:08:53;8.05;;;7.45;;
77563;SDS011;66703;48.076;9.220;2023-12-29T14:11:18;8.48;;;7.88;;
77563;SDS011;66703;48.076;9.220;2023-12-29T14:13:44;6.72;;;6.22;;
77563;SDS011;66703;48.076;9.220;2023-12-29T14:16:10;7.97;;;7.57;;
77563;SDS011;66703;48.076;9.220;2023-12-29T14:21:28;9.13;;;8.63;;
77563;SDS011;66703;48.076;9.220;2023-12-29T14:26:32;7.63;;;6.60;;
77563;SDS011;66703;48.076;9.220;2023-12-29T14:29:02;8.52;;;7.93;;
77563;SDS011;66703;48.076;9.220;2023-12-29T14:31:31;8.15;;;7.55;;
77563;SDS011;66703;48.076;9.220;2023-12-29T14:33:58;7.25;;;6.78;;
77563;SDS011;66703;48.076;9.220;2023-12-29T14:36:23;11.48;;;10.93;;
77563;SDS011;66703;48.076;9.220;2023-12-29T14:38:48;8.55;;;7.75;;
77563;SDS011;66703;48.076;9.220;2023-12-29T14:41:14;7.30;;;6.80;;
77563;SDS011;66703;48.076;9.220;2023-12-29T14:43:39;6.72;;;6.32;;
77563;SDS011;66703;48.076;9.220;2023-12-29T14:46:04;8.60;;;7.90;;
77563;SDS011;66703;48.076;9.220;2023-12-29T14:48:30;8.10;;;7.60;;
77563;SDS011;66703;48.076;9.220;2023-12-29T14:50:55;7.07;;;6.57;;